Time;durP1;ratioP1;P1;durP2;ratioP2;P2;SDS_P1;SDS_P2;PMS_P1;PMS_P2;Temp;Humidity;BMP_temperature;BMP_pressure;BME280_temperature;BME280_humidity;BME280_pressure;Samples;Min_cycle;Max_cycle;Signal;HPM_P1;HPM_P2
2023/06/21 00:00:59;;;;;;;27.08;17.00;;;;;;;16.87;100.00;101205.19;5102208;28;20117;-69
2023/06/21 00:03:25;;;;;;;26.45;17.02;;;;;;;16.84;100.00;101197.25;5105025;28;20020;-69
2023/06/21 00:05:50;;;;;;;26.70;17.33;;;;;;;16.77;100.00;101203.59;5103000;28;20047;-69
2023/06/21 00:08:16;;;;;;;26.83;17.92;;;;;;;16.80;100.00;101201.72;5103398;28;20032;-69
2023/06/21 00:10:41;;;;;;;26.77;17.20;;;;;;;16.79;100.00;101204.44;5104502;28;20027;-69
2023/06/21 00:13:06;;;;;;;26.45;17.40;;;;;;;16.81;100.00;101208.84;5102065;28;20032;-69
2023/06/21 00:15:32;;;;;;;27.27;18.10;;;;;;;16.80;100.00;101222.22;5105234;28;20466;-69
2023/06/21 00:17:57;;;;;;;27.55;18.20;;;;;;;16.79;100.00;101223.13;5101290;28;20430;-69
2023/06/21 00:20:22;;;;;;;28.20;18.38;;;;;;;16.79;100.00;101218.69;5104201;28;20117;-68
2023/06/21 00:22:55;;;;;;;27.40;18.13;;;;;;;16.79;100.00;101228.44;5085090;28;20051;-66
2023/06/21 00:25:20;;;;;;;28.08;18.67;;;;;;;16.77;100.00;101223.13;5104306;28;20024;-69
2023/06/21 00:27:46;;;;;;;28.25;18.65;;;;;;;16.76;100.00;101225.84;5103345;28;20585;-69
2023/06/21 00:30:11;;;;;;;28.15;18.02;;;;;;;16.74;100.00;101216.06;5102378;28;20024;-69
2023/06/21 00:32:38;;;;;;;28.15;18.63;;;;;;;16.70;100.00;101211.69;5104823;28;20432;-69
2023/06/21 00:35:05;;;;;;;29.40;19.42;;;;;;;16.72;100.00;101209.88;5101335;28;20050;-69
2023/06/21 00:37:30;;;;;;;27.75;19.10;;;;;;;16.69;100.00;101215.25;5097124;28;20127;-69
2023/06/21 00:39:55;;;;;;;28.77;18.95;;;;;;;16.67;100.00;101210.84;5104256;28;20119;-69
2023/06/21 00:42:21;;;;;;;28.15;18.63;;;;;;;16.71;100.00;101220.56;5102494;28;20043;-69
2023/06/21 00:44:46;;;;;;;28.27;18.95;;;;;;;16.71;100.00;101217.91;5102997;28;20020;-69
2023/06/21 00:47:12;;;;;;;28.02;18.92;;;;;;;16.67;100.00;101226.84;5103763;28;20055;-68
2023/06/21 00:49:37;;;;;;;28.33;19.27;;;;;;;16.71;100.00;101231.25;5101622;28;20020;-64
2023/06/21 00:52:05;;;;;;;29.20;19.40;;;;;;;16.66;100.00;101227.75;5104633;28;20048;-67
2023/06/21 00:54:35;;;;;;;29.38;19.17;;;;;;;16.65;100.00;101229.53;5097155;28;20108;-66
2023/06/21 00:57:04;;;;;;;28.85;19.90;;;;;;;16.62;100.00;101226.94;5096945;28;20024;-68
2023/06/21 00:59:30;;;;;;;28.00;18.95;;;;;;;16.60;100.00;101231.41;5104641;28;20046;-67
2023/06/21 01:01:57;;;;;;;29.55;18.83;;;;;;;16.60;100.00;101231.41;5101927;28;20031;-68
2023/06/21 01:04:24;;;;;;;28.70;19.85;;;;;;;16.59;100.00;101229.66;5103451;28;20394;-66
2023/06/21 01:06:56;;;;;;;28.88;19.27;;;;;;;16.60;100.00;101233.19;5102329;28;20505;-68
2023/06/21 01:09:30;;;;;;;29.73;20.05;;;;;;;16.58;100.00;101235.88;5103469;28;20036;-68
2023/06/21 01:12:15;;;;;;;28.65;19.42;;;;;;;16.59;100.00;101234.13;5101502;28;20030;-68
2023/06/21 01:15:03;;;;;;;29.33;19.80;;;;;;;16.54;100.00;101242.16;5098909;28;20024;-68
2023/06/21 01:17:32;;;;;;;29.58;19.23;;;;;;;16.51;100.00;101240.44;5101296;28;20051;-66
2023/06/21 01:19:58;;;;;;;28.63;19.15;;;;;;;16.54;100.00;101228.81;5103919;28;20054;-68
2023/06/21 01:22:45;;;;;;;29.08;19.30;;;;;;;16.51;100.00;101235.09;5101691;28;20106;-64
2023/06/21 01:25:16;;;;;;;29.13;19.75;;;;;;;16.52;100.00;101233.31;5098852;28;20073;-68
2023/06/21 01:27:53;;;;;;;29.33;20.48;;;;;;;16.49;100.00;101244.03;5103807;28;20092;-68
2023/06/21 01:30:21;;;;;;;29.13;19.58;;;;;;;16.43;100.00;101236.13;5107093;28;20036;-67
2023/06/21 01:32:53;;;;;;;29.63;20.10;;;;;;;16.42;100.00;101234.34;5106712;28;20110;-68
2023/06/21 01:35:20;;;;;;;28.75;19.65;;;;;;;16.41;100.00;101230.81;5106623;28;20130;-65
2023/06/21 01:37:50;;;;;;;28.75;19.35;;;;;;;16.44;100.00;101245.84;5106929;28;20020;-68
2023/06/21 01:40:16;;;;;;;29.98;20.58;;;;;;;16.44;100.00;101240.53;5105962;28;20032;-68
2023/06/21 01:42:41;;;;;;;30.25;20.70;;;;;;;16.43;100.00;101244.13;5107494;28;20028;-68
2023/06/21 01:45:08;;;;;;;29.70;19.73;;;;;;;16.42;100.00;101250.34;5105060;28;20082;-68
2023/06/21 01:47:35;;;;;;;30.42;19.90;;;;;;;16.41;100.00;101244.13;5108141;28;20385;-68
2023/06/21 01:50:04;;;;;;;28.98;19.77;;;;;;;16.46;100.00;101241.41;5104494;28;20058;-68
2023/06/21 01:52:30;;;;;;;30.67;20.67;;;;;;;16.43;100.00;101244.13;5107843;28;20040;-68
2023/06/21 01:54:55;;;;;;;29.05;20.02;;;;;;;16.43;100.00;101247.66;5105064;28;20043;-68
2023/06/21 01:57:23;;;;;;;29.38;20.33;;;;;;;16.42;100.00;101245.88;5106660;28;20036;-68
2023/06/21 01:59:50;;;;;;;29.50;20.20;;;;;;;16.43;100.00;101249.44;5088278;28;20226;-67
2023/06/21 02:02:16;;;;;;;30.27;20.58;;;;;;;16.40;100.00;101255.72;5105594;28;20066;-68
2023/06/21 02:04:44;;;;;;;31.73;20.63;;;;;;;16.36;100.00;101253.97;5106773;28;20497;-67
2023/06/21 02:07:13;;;;;;;30.45;20.05;;;;;;;16.36;100.00;101254.84;5104855;28;20039;-67
2023/06/21 02:09:40;;;;;;;31.25;21.05;;;;;;;16.35;100.00;101263.78;5107123;28;20038;-67
2023/06/21 02:12:06;;;;;;;31.17;21.10;;;;;;;16.36;100.00;101264.66;5104177;28;20583;-69
2023/06/21 02:14:32;;;;;;;30.42;21.15;;;;;;;16.36;100.00;101259.31;5100221;28;20036;-67
2023/06/21 02:16:57;;;;;;;30.65;21.20;;;;;;;16.35;100.00;101265.53;5107077;28;20072;-68
2023/06/21 02:19:24;;;;;;;32.33;22.23;;;;;;;16.34;100.00;101256.66;5105151;28;20119;-68
2023/06/21 02:21:50;;;;;;;31.90;22.05;;;;;;;16.30;100.00;101268.28;5106103;28;20028;-67
2023/06/21 02:24:16;;;;;;;31.98;22.40;;;;;;;16.33;100.00;101278.03;5105894;28;20032;-64
2023/06/21 02:26:41;;;;;;;32.13;22.40;;;;;;;16.31;100.00;101280.72;5104487;28;20024;-67
2023/06/21 02:29:06;;;;;;;31.45;21.60;;;;;;;16.29;100.00;101279.84;5107394;28;20030;-67
2023/06/21 02:31:33;;;;;;;35.10;22.65;;;;;;;16.31;100.00;101283.38;5103771;28;20024;-67
2023/06/21 02:33:58;;;;;;;33.00;22.88;;;;;;;16.28;100.00;101272.75;5107162;28;20035;-66
2023/06/21 02:36:24;;;;;;;33.33;22.30;;;;;;;16.26;100.00;101290.53;5104756;28;20112;-67
2023/06/21 02:38:49;;;;;;;33.40;23.48;;;;;;;16.30;100.00;101292.28;5105325;28;20032;-67
2023/06/21 02:41:15;;;;;;;32.35;22.88;;;;;;;16.30;100.00;101296.75;5104759;28;20363;-67
2023/06/21 02:43:40;;;;;;;33.13;23.08;;;;;;;16.33;100.00;101296.69;5104297;28;20028;-68
2023/06/21 02:46:05;;;;;;;34.20;23.83;;;;;;;16.30;100.00;101292.28;5106926;28;20023;-68
2023/06/21 02:48:31;;;;;;;32.63;22.85;;;;;;;16.29;100.00;101305.63;5103585;28;20483;-67
2023/06/21 02:50:57;;;;;;;33.30;23.63;;;;;;;16.28;100.00;101306.53;5106168;28;20056;-68
2023/06/21 02:53:22;;;;;;;33.42;23.38;;;;;;;16.27;100.00;101299.44;5104587;28;20474;-67
2023/06/21 02:55:47;;;;;;;31.60;22.55;;;;;;;16.30;100.00;101305.63;5104901;28;20089;-67
2023/06/21 02:58:13;;;;;;;32.90;23.60;;;;;;;16.24;100.00;101297.69;5105679;28;20023;-68
2023/06/21 03:00:40;;;;;;;34.20;23.80;;;;;;;16.25;100.00;101312.81;5103618;28;20078;-68
2023/06/21 03:03:06;;;;;;;33.20;23.55;;;;;;;16.26;100.00;101322.56;5106864;28;20039;-68
2023/06/21 03:05:35;;;;;;;35.15;24.85;;;;;;;16.28;100.00;101318.09;5098967;28;20028;-68
2023/06/21 03:08:03;;;;;;;33.90;24.08;;;;;;;16.30;100.00;101329.63;5106371;28;20024;-68
2023/06/21 03:10:30;;;;;;;35.55;25.15;;;;;;;16.24;100.00;101328.81;5103410;28;20024;-68
2023/06/21 03:12:55;;;;;;;34.67;24.33;;;;;;;16.24;100.00;101336.81;5105589;28;20036;-65
2023/06/21 03:15:21;;;;;;;34.20;24.52;;;;;;;16.20;100.00;101333.31;5104230;28;20504;-69
2023/06/21 03:17:46;;;;;;;34.58;24.60;;;;;;;16.21;100.00;101341.28;5104367;28;20028;-68
2023/06/21 03:20:13;;;;;;;34.58;24.92;;;;;;;16.24;100.00;101351.03;5105495;28;20056;-67
2023/06/21 03:22:43;;;;;;;35.00;24.75;;;;;;;16.24;100.00;101356.38;5103005;28;20028;-65
2023/06/21 03:25:10;;;;;;;34.65;24.33;;;;;;;16.23;100.00;101351.06;5106143;28;20422;-67
2023/06/21 03:27:35;;;;;;;35.60;25.17;;;;;;;16.25;100.00;101352.81;5102572;28;20426;-67
2023/06/21 03:30:01;;;;;;;35.22;24.85;;;;;;;16.23;100.00;101351.94;5105944;28;20068;-66
2023/06/21 03:32:27;;;;;;;35.22;24.60;;;;;;;16.21;100.00;101348.41;5103388;28;20040;-67
2023/06/21 03:34:52;;;;;;;36.30;25.27;;;;;;;16.24;100.00;101344.81;5086612;28;20439;-67
2023/06/21 03:37:18;;;;;;;34.95;25.00;;;;;;;16.28;100.00;101351.88;5104430;28;20077;-66
2023/06/21 03:39:44;;;;;;;35.15;24.38;;;;;;;16.31;100.00;101344.75;5103377;28;20032;-67
2023/06/21 03:42:10;;;;;;;34.55;24.90;;;;;;;16.34;100.00;101344.69;5105424;28;20539;-67
2023/06/21 03:44:36;;;;;;;35.35;25.20;;;;;;;16.39;100.00;101340.16;5102253;28;20115;-65
2023/06/21 03:47:01;;;;;;;35.85;25.10;;;;;;;16.42;100.00;101339.25;5105842;28;20517;-68
2023/06/21 03:49:26;;;;;;;34.30;24.65;;;;;;;16.47;100.00;101340.09;5102906;28;20032;-68
2023/06/21 03:51:52;;;;;;;35.53;25.33;;;;;;;16.48;100.00;101346.31;5103991;28;20040;-67
2023/06/21 03:54:17;;;;;;;35.97;25.55;;;;;;;16.51;100.00;101341.84;5104339;28;20034;-65
2023/06/21 03:56:42;;;;;;;36.08;26.15;;;;;;;16.52;100.00;101350.72;5102821;28;20052;-68
2023/06/21 03:59:08;;;;;;;36.58;25.38;;;;;;;16.56;100.00;101349.78;5105383;28;20039;-68
2023/06/21 04:01:33;;;;;;;34.20;24.40;;;;;;;16.62;100.00;101355.03;5102220;28;20042;-68
2023/06/21 04:03:59;;;;;;;35.03;25.25;;;;;;;16.62;100.00;101356.84;5104939;28;20377;-64
2023/06/21 04:06:25;;;;;;;34.33;24.63;;;;;;;16.67;100.00;101363.88;5103228;28;20032;-67
2023/06/21 04:08:51;;;;;;;34.65;25.25;;;;;;;16.68;100.00;101368.28;5103765;28;20020;-68
2023/06/21 04:11:16;;;;;;;33.58;24.25;;;;;;;16.68;100.00;101360.28;5104067;28;20089;-65
2023/06/21 04:13:42;;;;;;;34.08;24.40;;;;;;;16.65;100.00;101363.00;5102566;28;20111;-68
2023/06/21 04:16:07;;;;;;;35.13;25.05;;;;;;;16.66;100.00;101372.78;5105245;28;20058;-64
2023/06/21 04:18:32;;;;;;;34.90;25.30;;;;;;;16.65;100.00;101375.47;5101705;28;20436;-68
2023/06/21 04:20:58;;;;;;;34.88;24.88;;;;;;;16.64;100.00;101373.69;5104783;28;20032;-68
2023/06/21 04:23:26;;;;;;;34.60;25.58;;;;;;;16.64;100.00;101382.56;5102810;28;20103;-68
2023/06/21 04:25:51;;;;;;;35.80;24.98;;;;;;;16.65;100.00;101384.34;5103503;28;20486;-68
2023/06/21 04:28:17;;;;;;;35.60;25.92;;;;;;;16.67;100.00;101387.91;5103713;28;20031;-66
2023/06/21 04:30:42;;;;;;;35.95;25.92;;;;;;;16.71;100.00;101376.25;5102149;28;20417;-68
2023/06/21 04:33:08;;;;;;;36.78;26.30;;;;;;;16.70;100.00;101384.28;5105097;28;20042;-68
2023/06/21 04:35:33;;;;;;;34.72;25.73;;;;;;;16.72;100.00;101387.84;5101707;28;20024;-68
2023/06/21 04:38:00;;;;;;;34.92;25.65;;;;;;;16.72;100.00;101390.50;5104345;28;20106;-67
2023/06/21 04:40:25;;;;;;;35.83;25.77;;;;;;;16.77;100.00;101399.31;5102241;28;20086;-68
2023/06/21 04:42:54;;;;;;;37.40;26.88;;;;;;;16.80;100.00;101398.41;5103373;28;20032;-68
2023/06/21 04:45:20;;;;;;;36.08;25.92;;;;;;;16.85;100.00;101396.59;5103141;28;20108;-67
2023/06/21 04:47:46;;;;;;;34.40;26.70;;;;;;;16.89;100.00;101396.53;5102386;28;20487;-69
2023/06/21 04:50:12;;;;;;;35.83;26.17;;;;;;;16.95;100.00;101392.91;5104299;28;20068;-68
2023/06/21 04:52:38;;;;;;;37.20;27.55;;;;;;;16.99;100.00;101383.94;5101078;28;20131;-68
2023/06/21 04:55:07;;;;;;;36.17;27.42;;;;;;;17.10;100.00;101385.59;5104880;28;20426;-67
2023/06/21 04:57:34;;;;;;;35.72;27.00;;;;;;;17.19;100.00;101380.97;5097053;28;20119;-68
2023/06/21 05:00:06;;;;;;;35.05;26.17;;;;;;;17.26;100.00;101379.13;5103898;28;20122;-66
2023/06/21 05:02:31;;;;;;;36.50;27.20;;;;;;;17.31;100.00;101387.94;5100688;28;20039;-68
2023/06/21 05:04:56;;;;;;;34.15;25.85;;;;;;;17.29;100.00;101387.09;5104084;28;20036;-67
2023/06/21 05:07:22;;;;;;;34.30;26.38;;;;;;;17.32;100.00;101391.50;5102750;28;20535;-69
2023/06/21 05:09:47;;;;;;;34.33;25.63;;;;;;;17.28;100.00;101387.09;5102545;28;20032;-66
2023/06/21 05:12:12;;;;;;;34.42;26.00;;;;;;;17.29;100.00;101392.44;5103941;28;20077;-66
2023/06/21 05:14:38;;;;;;;34.83;26.60;;;;;;;17.33;100.00;101398.59;5100838;28;20036;-68
2023/06/21 05:17:03;;;;;;;34.58;26.17;;;;;;;17.39;100.00;101388.72;5104762;28;20096;-66
2023/06/21 05:19:29;;;;;;;35.22;26.63;;;;;;;17.56;100.00;101395.56;5101770;28;20510;-65
2023/06/21 05:21:54;;;;;;;33.35;25.88;;;;;;;17.65;100.00;101398.13;5103171;28;20064;-65
2023/06/21 05:24:19;;;;;;;32.88;25.08;;;;;;;17.73;100.00;101403.31;5102982;28;20124;-68
2023/06/21 05:26:45;;;;;;;32.65;25.33;;;;;;;17.77;100.00;101405.91;5101723;28;20050;-67
2023/06/21 05:29:11;;;;;;;31.48;24.60;;;;;;;17.77;100.00;101405.91;5103778;28;20073;-68
2023/06/21 05:31:37;;;;;;;32.10;24.17;;;;;;;17.74;100.00;101399.75;5101016;28;20106;-68
2023/06/21 05:34:03;;;;;;;32.28;24.48;;;;;;;17.73;100.00;101396.19;5096688;28;20036;-68
2023/06/21 05:36:28;;;;;;;33.63;25.40;;;;;;;17.62;100.00;101389.25;5103606;28;20169;-68
2023/06/21 05:38:53;;;;;;;31.85;23.85;;;;;;;17.53;100.00;101390.28;5083996;28;20077;-68
2023/06/21 05:41:19;;;;;;;32.10;24.38;;;;;;;17.50;100.00;101391.19;5102104;28;20035;-67
2023/06/21 05:43:44;;;;;;;32.30;24.83;;;;;;;17.55;100.00;101391.16;5103165;28;20028;-68
2023/06/21 05:46:09;;;;;;;33.80;25.02;;;;;;;17.57;100.00;101395.53;5100765;28;20061;-66
2023/06/21 05:48:35;;;;;;;33.38;25.65;;;;;;;17.54;100.00;101408.09;5104267;28;20054;-68
2023/06/21 05:51:00;;;;;;;34.00;25.45;;;;;;;17.56;100.00;101412.50;5100580;28;20046;-68
2023/06/21 05:53:25;;;;;;;33.38;25.30;;;;;;;17.60;100.00;101405.31;5099236;28;20036;-60
2023/06/21 05:55:53;;;;;;;35.80;26.80;;;;;;;17.67;100.00;101414.13;5096167;28;20032;-61
2023/06/21 05:58:20;;;;;;;32.53;24.98;;;;;;;17.58;100.00;101409.81;5099286;28;20028;-61
2023/06/21 06:00:46;;;;;;;34.17;24.48;;;;;;;17.57;100.00;101413.38;5101901;28;20059;-60
2023/06/21 06:03:11;;;;;;;31.85;24.30;;;;;;;17.55;100.00;101424.09;5102727;28;20055;-61
2023/06/21 06:05:37;;;;;;;32.10;24.85;;;;;;;17.62;100.00;101422.22;5100578;28;20028;-63
2023/06/21 06:08:02;;;;;;;32.25;23.58;;;;;;;17.66;100.00;101423.91;5103928;28;20069;-72
2023/06/21 06:10:27;;;;;;;29.50;21.38;;;;;;;17.69;100.00;101423.00;5101232;28;20028;-73
2023/06/21 06:12:53;;;;;;;29.85;21.95;;;;;;;17.84;100.00;101422.75;5100805;28;20020;-78
2023/06/21 06:15:18;;;;;;;30.45;22.10;;;;;;;17.94;100.00;101415.50;5104491;28;20119;-72
2023/06/21 06:17:43;;;;;;;28.65;20.58;;;;;;;17.97;100.00;101415.44;5104830;28;20486;-75
2023/06/21 06:20:10;;;;;;;29.90;22.40;;;;;;;18.07;100.00;101419.72;5105845;28;20028;-75
2023/06/21 06:22:35;;;;;;;29.70;21.05;;;;;;;18.01;100.00;101414.44;5104953;28;20111;-71
2023/06/21 06:25:01;;;;;;;28.92;20.55;;;;;;;18.11;100.00;101396.44;5105982;28;20122;-70
2023/06/21 06:27:27;;;;;;;29.90;21.60;;;;;;;18.16;100.00;101407.06;5105830;28;20028;-70
2023/06/21 06:29:53;;;;;;;29.23;21.40;;;;;;;18.10;100.00;101419.66;5104452;28;20028;-77
2023/06/21 06:32:18;;;;;;;30.10;21.48;;;;;;;18.11;100.00;101429.47;5106625;28;20027;-73
2023/06/21 06:34:43;;;;;;;28.95;19.85;;;;;;;18.15;100.00;101432.94;5104276;28;20073;-73
2023/06/21 06:37:09;;;;;;;27.38;18.85;;;;;;;18.22;100.00;101429.25;5103694;28;20032;-72
2023/06/21 06:39:34;;;;;;;26.00;17.02;;;;;;;18.22;100.00;101433.72;5102688;28;20032;-72
2023/06/21 06:41:59;;;;;;;26.05;17.17;;;;;;;18.28;100.00;101433.63;5103259;28;20443;-72
2023/06/21 06:44:24;;;;;;;27.30;18.08;;;;;;;18.34;100.00;101432.63;5088198;28;20040;-72
2023/06/21 06:46:50;;;;;;;24.23;15.02;;;;;;;18.33;100.00;101431.72;5107020;28;20068;-75
2023/06/21 06:49:15;;;;;;;23.10;13.38;;;;;;;18.39;100.00;101436.06;5100267;28;20030;-76
2023/06/21 06:51:42;;;;;;;23.67;13.95;;;;;;;18.55;100.00;101434.00;5102478;28;20491;-74
2023/06/21 06:54:08;;;;;;;23.55;13.45;;;;;;;18.69;100.00;101445.31;5099598;28;20035;-73
2023/06/21 06:56:33;;;;;;;23.40;12.73;;;;;;;18.72;100.00;101444.38;5106165;28;20080;-76
2023/06/21 06:58:59;;;;;;;22.17;12.50;;;;;;;18.80;100.00;101445.97;5106504;28;20020;-72
2023/06/21 07:01:27;;;;;;;22.85;12.00;;;;;;;18.78;100.00;101450.47;5103152;28;20042;-71
2023/06/21 07:03:52;;;;;;;22.27;12.27;;;;;;;18.71;100.00;101447.97;5091041;28;20098;-73
2023/06/21 07:06:17;;;;;;;22.65;11.77;;;;;;;18.66;100.00;101445.38;5099342;28;20036;-74
2023/06/21 07:08:44;;;;;;;21.67;11.88;;;;;;;18.74;100.00;101445.22;5103256;28;20028;-72
2023/06/21 07:11:10;;;;;;;22.25;11.30;;;;;;;18.91;100.00;101444.91;5106349;28;20374;-74
2023/06/21 07:13:35;;;;;;;22.27;11.15;;;;;;;19.08;100.00;101453.47;5102789;28;20479;-61
2023/06/21 07:16:01;;;;;;;21.92;11.30;;;;;;;19.25;100.00;101445.06;5102818;28;20097;-65
2023/06/21 07:18:26;;;;;;;21.02;10.60;;;;;;;19.30;100.00;101447.66;5105524;28;20024;-67
2023/06/21 07:20:52;;;;;;;21.38;10.95;;;;;;;19.40;100.00;101442.97;5102527;28;20120;-66
2023/06/21 07:23:18;;;;;;;21.88;11.65;;;;;;;19.52;100.00;101442.66;5105184;28;20505;-65
2023/06/21 07:25:43;;;;;;;22.05;11.65;;;;;;;19.72;100.00;101444.88;5105675;28;20032;-65
2023/06/21 07:28:09;;;;;;;23.20;12.93;;;;;;;19.70;100.00;101446.69;5103033;28;20040;-65
2023/06/21 07:30:34;;;;;;;23.00;13.30;;;;;;;19.66;100.00;101442.34;5104987;28;20417;-66
2023/06/21 07:33:00;;;;;;;22.55;13.68;;;;;;;19.73;100.00;101440.38;5104263;28;20028;-66
2023/06/21 07:35:25;;;;;;;24.15;14.38;;;;;;;19.93;100.00;101443.47;5102718;28;20485;-65
2023/06/21 07:37:50;;;;;;;24.35;14.60;;;;;;;20.12;100.00;101443.88;5104013;28;20050;-66
2023/06/21 07:40:16;;;;;;;24.52;15.65;;;;;;;20.29;100.00;101451.50;5104726;28;20038;-67
2023/06/21 07:42:41;;;;;;;24.38;15.20;;;;;;;20.42;100.00;101454.75;5102413;28;20070;-67
2023/06/21 07:45:08;;;;;;;23.63;15.27;;;;;;;20.47;100.00;101460.84;5087216;28;20122;-67
2023/06/21 07:47:34;;;;;;;23.67;14.93;;;;;;;20.70;100.00;101459.38;5098834;28;20056;-64
2023/06/21 07:49:59;;;;;;;22.85;14.00;;;;;;;20.96;100.00;101461.31;5105566;28;20051;-67
2023/06/21 07:52:25;;;;;;;22.67;14.00;;;;;;;21.12;100.00;101463.56;5083647;28;20395;-67
2023/06/21 07:54:50;;;;;;;23.73;14.65;;;;;;;20.94;100.00;101464.97;5104980;28;20486;-67
2023/06/21 07:57:17;;;;;;;23.10;14.68;;;;;;;20.88;100.00;101464.25;5103217;28;20024;-64
2023/06/21 07:59:43;;;;;;;23.58;14.63;;;;;;;20.86;100.00;101459.81;5101947;28;20075;-69
2023/06/21 08:02:13;;;;;;;23.40;14.30;;;;;;;20.94;100.00;101459.59;5104550;28;20043;-64
2023/06/21 08:04:39;;;;;;;23.05;13.25;;;;;;;21.03;100.00;101462.91;5102848;28;20036;-66
2023/06/21 08:07:05;;;;;;;21.00;11.60;;;;;;;21.01;100.00;101472.84;5104315;28;20463;-67
2023/06/21 08:09:30;;;;;;;22.38;13.02;;;;;;;21.14;100.00;101467.94;5104008;28;20118;-64
2023/06/21 08:11:56;;;;;;;22.02;13.05;;;;;;;21.23;100.00;101470.38;5103034;28;20497;-67
2023/06/21 08:14:21;;;;;;;21.95;13.07;;;;;;;21.44;100.00;101470.63;5104960;28;20028;-68
2023/06/21 08:16:46;;;;;;;22.50;13.32;;;;;;;21.18;100.00;101479.50;5101716;28;20390;-66
2023/06/21 08:19:12;;;;;;;21.85;13.07;;;;;;;21.02;100.00;101479.94;5104982;28;20038;-64
2023/06/21 08:21:38;;;;;;;21.55;12.65;;;;;;;21.03;100.00;101476.34;5102467;28;20462;-67
2023/06/21 08:24:04;;;;;;;21.70;12.32;;;;;;;20.99;100.00;101481.84;5103633;28;20052;-64
2023/06/21 08:26:29;;;;;;;20.40;10.90;;;;;;;21.09;100.00;101477.97;5103780;28;20105;-68
2023/06/21 08:28:54;;;;;;;20.70;10.30;;;;;;;21.18;100.00;101476.81;5102323;28;20020;-68
2023/06/21 08:31:20;;;;;;;19.25;8.73;;;;;;;21.15;100.00;101475.09;5105051;28;20084;-68
2023/06/21 08:33:45;;;;;;;19.80;9.57;;;;;;;21.27;100.00;101483.72;5101778;28;20028;-73
2023/06/21 08:36:11;;;;;;;20.25;10.15;;;;;;;21.44;100.00;101476.00;5104209;28;20032;-72
2023/06/21 08:38:37;;;;;;;20.60;10.45;;;;;;;21.57;100.00;101476.56;5101969;28;20077;-68
2023/06/21 08:41:03;;;;;;;18.92;8.02;;;;;;;21.56;100.00;101481.03;5103121;28;20032;-65
2023/06/21 08:43:29;;;;;;;18.25;7.68;;;;;;;21.50;100.00;101477.63;5103583;28;20039;-69
2023/06/21 08:45:56;;;;;;;18.90;7.88;;;;;;;21.71;100.00;101474.31;5102171;28;20032;-64
2023/06/21 08:48:22;;;;;;;19.20;7.60;;;;;;;21.86;100.00;101475.59;5104401;28;20032;-71
2023/06/21 08:50:49;;;;;;;18.80;7.55;;;;;;;22.03;100.00;101475.06;5100975;28;20487;-66
2023/06/21 08:53:25;;;;;;;19.08;8.88;;;;;;;22.21;100.00;101487.00;5105360;28;20512;-71
2023/06/21 08:55:51;;;;;;;19.20;8.48;;;;;;;22.46;100.00;101480.78;5098159;28;20100;-73
2023/06/21 08:58:22;;;;;;;20.45;9.55;;;;;;;22.49;100.00;101482.50;5104579;28;20032;-71
2023/06/21 09:00:51;;;;;;;19.67;9.55;;;;;;;22.40;100.00;101489.97;5079164;28;20482;-65
2023/06/21 09:03:26;;;;;;;20.58;10.35;;;;;;;22.26;100.00;101481.44;5097364;28;20107;-69
2023/06/21 09:06:03;;;;;;;20.83;9.90;;;;;;;22.55;100.00;101482.28;5098240;28;20031;-73
2023/06/21 09:08:31;;;;;;;20.08;8.60;;;;;;;22.58;100.00;101483.03;5103249;28;20131;-70
2023/06/21 09:10:57;;;;;;;18.58;7.15;;;;;;;22.62;100.00;101483.81;5101941;28;20069;-68
2023/06/21 09:13:24;;;;;;;18.45;7.97;;;;;;;22.81;100.00;101478.63;5104187;28;20020;-70
2023/06/21 09:15:51;;;;;;;18.38;7.60;;;;;;;22.90;100.00;101494.44;5101015;28;20036;-65
2023/06/21 09:18:18;;;;;;;17.45;6.22;;;;;;;22.88;100.00;101482.00;5104349;28;20032;-70
2023/06/21 09:20:49;;;;;;;18.02;6.20;;;;;;;22.95;100.00;101488.88;5101199;28;20032;-68
2023/06/21 09:23:14;;;;;;;18.20;6.40;;;;;;;22.97;100.00;101495.97;5104289;28;20102;-68
2023/06/21 09:25:40;;;;;;;18.40;6.75;;;;;;;23.18;100.00;101506.06;5101547;28;20111;-66
2023/06/21 09:28:05;;;;;;;20.98;7.55;;;;;;;23.39;100.00;101502.53;5103185;28;20032;-67
2023/06/21 09:30:31;;;;;;;13.40;4.78;;;;;;;23.49;94.40;101500.38;5102728;28;20070;-68
2023/06/21 09:32:57;;;;;;;13.00;4.80;;;;;;;23.52;88.89;101504.72;5101582;28;20025;-67
2023/06/21 09:35:23;;;;;;;15.25;5.00;;;;;;;23.49;93.20;101506.63;5101934;28;20028;-68
2023/06/21 09:37:48;;;;;;;17.05;5.60;;;;;;;23.58;93.43;101507.22;5102678;28;20473;-68
2023/06/21 09:40:14;;;;;;;16.77;6.03;;;;;;;23.81;94.73;101499.06;5100238;28;20462;-68
2023/06/21 09:42:40;;;;;;;18.75;6.90;;;;;;;23.98;91.12;101511.91;5103870;28;20104;-69
2023/06/21 09:45:08;;;;;;;18.75;7.10;;;;;;;23.91;96.78;101521.19;5100833;28;20028;-68
2023/06/21 09:47:34;;;;;;;18.27;6.70;;;;;;;23.92;98.96;101512.13;5103509;28;20103;-68
2023/06/21 09:49:59;;;;;;;17.73;6.63;;;;;;;24.07;95.96;101512.44;5104403;28;20474;-68
2023/06/21 09:52:26;;;;;;;15.85;5.47;;;;;;;24.29;91.87;101510.59;5106036;28;20044;-69
2023/06/21 09:54:51;;;;;;;10.63;3.90;;;;;;;24.42;80.39;101505.56;5107008;28;20026;-68
2023/06/21 09:57:17;;;;;;;12.85;4.03;;;;;;;24.64;84.04;101523.53;5105143;28;20115;-68
2023/06/21 09:59:47;;;;;;;16.65;5.40;;;;;;;24.42;76.16;101521.78;5107849;28;20028;-68
2023/06/21 10:02:12;;;;;;;15.35;5.25;;;;;;;24.32;76.11;101507.78;5101490;28;20027;-65
2023/06/21 10:04:40;;;;;;;15.10;5.03;;;;;;;24.59;79.62;101523.75;5104814;28;20034;-68
2023/06/21 10:07:06;;;;;;;16.35;5.10;;;;;;;24.89;76.70;101528.75;5107719;28;20114;-68
2023/06/21 10:09:37;;;;;;;16.52;5.65;;;;;;;25.57;68.26;101528.31;5099720;28;20115;-68
2023/06/21 10:12:08;;;;;;;13.43;4.20;;;;;;;26.91;63.27;101534.28;5100443;28;20028;-69
2023/06/21 10:14:34;;;;;;;14.90;4.82;;;;;;;27.52;57.14;101529.19;5100144;28;20474;-66
2023/06/21 10:17:00;;;;;;;12.98;4.20;;;;;;;28.13;50.50;101536.53;5107097;28;20034;-64
2023/06/21 10:19:29;;;;;;;12.32;4.60;;;;;;;28.22;50.13;101550.56;5104672;28;20031;-68
2023/06/21 10:22:17;;;;;;;15.82;5.28;;;;;;;28.60;52.40;101555.53;5106426;28;20497;-69
2023/06/21 10:24:50;;;;;;;17.33;5.90;;;;;;;29.34;51.16;101551.00;5102110;28;20035;-69
2023/06/21 10:27:18;;;;;;;16.10;5.40;;;;;;;30.59;49.06;101540.91;5105862;28;20531;-69
2023/06/21 10:29:52;;;;;;;16.23;5.68;;;;;;;30.20;45.76;101548.13;5104777;28;20071;-69
2023/06/21 10:32:20;;;;;;;17.60;5.78;;;;;;;27.97;50.84;101552.88;5088892;28;20032;-69
2023/06/21 10:34:57;;;;;;;16.73;6.30;;;;;;;27.33;54.75;101551.03;5105085;28;20025;-69
2023/06/21 10:37:31;;;;;;;17.10;5.93;;;;;;;28.73;51.06;101556.56;5104849;28;20046;-66
2023/06/21 10:40:05;;;;;;;14.18;4.80;;;;;;;28.82;51.42;101561.47;5106400;28;20119;-68
2023/06/21 10:42:31;;;;;;;11.45;4.10;;;;;;;30.16;45.69;101552.03;5103514;28;20115;-69
2023/06/21 10:44:58;;;;;;;11.98;4.30;;;;;;;31.51;41.02;101564.50;5106483;28;20036;-71
2023/06/21 10:47:25;;;;;;;15.55;5.30;;;;;;;31.84;40.95;101565.78;5096528;28;20032;-70
2023/06/21 10:49:53;;;;;;;14.70;5.15;;;;;;;32.59;40.04;101568.28;5106898;28;20405;-71
2023/06/21 10:52:21;;;;;;;16.80;5.80;;;;;;;32.25;39.65;101557.19;5102787;28;20048;-71
2023/06/21 10:54:48;;;;;;;15.80;5.55;;;;;;;32.55;40.38;101566.78;5106226;28;20098;-69
2023/06/21 10:57:14;;;;;;;14.88;5.68;;;;;;;32.99;38.67;101562.41;5103706;28;20035;-68
2023/06/21 10:59:41;;;;;;;13.85;5.18;;;;;;;33.53;38.61;101562.69;5105593;28;20028;-69
2023/06/21 11:02:07;;;;;;;15.07;5.32;;;;;;;33.26;37.18;101566.72;5105131;28;20176;-69